createdAt,value
2023-04-16T00:00:53.529Z,2.80
2023-04-16T00:06:08.296Z,3.40
2023-04-16T00:11:11.722Z,3.30
2023-04-16T00:16:14.584Z,3.20
2023-04-16T00:21:17.399Z,3.30
2023-04-16T00:26:20.669Z,3.00
2023-04-16T00:31:32.989Z,2.90
2023-04-16T00:36:35.824Z,3.10
2023-04-16T00:41:38.910Z,3.00
2023-04-16T00:46:42.767Z,3.10
2023-04-16T00:51:46.427Z,2.90
2023-04-16T00:56:49.682Z,2.80
2023-04-16T01:01:53.004Z,3.20
2023-04-16T01:06:56.426Z,2.80
2023-04-16T01:11:59.272Z,2.90
2023-04-16T01:17:03.651Z,2.40
2023-04-16T01:22:06.406Z,3.20
2023-04-16T01:27:09.225Z,2.60
2023-04-16T01:32:12.044Z,2.30
2023-04-16T01:37:14.907Z,2.90
2023-04-16T01:42:17.678Z,2.10
2023-04-16T01:47:20.865Z,1.80
2023-04-16T01:52:23.638Z,3.00
2023-04-16T01:57:26.392Z,3.20
2023-04-16T02:02:29.571Z,2.90
2023-04-16T02:07:32.889Z,2.70
2023-04-16T02:12:35.639Z,2.80
2023-04-16T02:17:38.518Z,2.60
2023-04-16T02:22:42.682Z,2.50
2023-04-16T02:27:45.401Z,2.60
2023-04-16T02:32:48.248Z,3.00
2023-04-16T02:37:51.017Z,2.70
2023-04-16T02:42:54.575Z,2.50
2023-04-16T02:47:57.469Z,2.70
2023-04-16T02:53:00.325Z,2.20
2023-04-16T02:58:03.132Z,2.20
2023-04-16T03:03:06.167Z,2.70
2023-04-16T03:08:09.292Z,2.00
2023-04-16T03:13:12.112Z,2.30
2023-04-16T03:18:14.859Z,2.50
2023-04-16T03:23:17.622Z,2.20
2023-04-16T03:28:20.505Z,2.20
2023-04-16T03:33:23.610Z,2.30
2023-04-16T03:38:26.845Z,2.30
2023-04-16T03:43:29.703Z,2.00
2023-04-16T03:48:32.553Z,2.40
2023-04-16T03:53:35.351Z,1.90
2023-04-16T03:58:38.097Z,2.20
2023-04-16T04:03:41.235Z,2.20
2023-04-16T04:08:44.210Z,2.20
2023-04-16T04:13:46.964Z,2.30
2023-04-16T04:18:49.876Z,3.00
2023-04-16T04:23:53.930Z,2.50
2023-04-16T04:28:58.002Z,2.80
2023-04-16T04:34:00.779Z,2.80
2023-04-16T04:39:03.871Z,2.20
2023-04-16T04:44:07.441Z,2.00
2023-04-16T04:49:10.452Z,2.00
2023-04-16T04:54:13.566Z,2.80
2023-04-16T04:59:16.329Z,2.30
2023-04-16T05:04:19.409Z,2.30
2023-04-16T05:09:22.340Z,2.60
2023-04-16T05:14:25.154Z,2.60
2023-04-16T05:19:28.004Z,2.10
2023-04-16T05:24:30.886Z,2.20
2023-04-16T05:29:33.656Z,2.10
2023-04-16T05:34:36.434Z,2.50
2023-04-16T05:39:39.213Z,2.30
2023-04-16T05:44:42.074Z,2.20
2023-04-16T05:49:44.904Z,2.20
2023-04-16T05:54:47.664Z,1.80
2023-04-16T05:59:50.475Z,1.80
2023-04-16T06:04:53.336Z,1.70
2023-04-16T06:09:56.105Z,1.80
2023-04-16T06:14:58.861Z,2.10
2023-04-16T06:20:01.725Z,1.80
2023-04-16T06:25:04.890Z,1.80
2023-04-16T06:30:14.257Z,2.00
2023-04-16T06:35:17.207Z,2.70
2023-04-16T06:40:20.049Z,3.60
2023-04-16T06:45:22.848Z,4.10
2023-04-16T06:50:27.042Z,3.40
2023-04-16T06:55:29.831Z,3.70
2023-04-16T07:00:33.892Z,3.80
2023-04-16T07:05:36.815Z,2.70
2023-04-16T07:10:39.672Z,3.80
2023-04-16T07:15:42.625Z,3.40
2023-04-16T07:20:45.580Z,3.00
2023-04-16T07:25:48.330Z,3.10
2023-04-16T07:30:51.359Z,2.30
2023-04-16T07:35:54.727Z,2.20
2023-04-16T07:40:57.701Z,2.20
2023-04-16T07:46:00.536Z,2.00
2023-04-16T07:51:03.575Z,2.20
2023-04-16T07:56:06.895Z,2.10
2023-04-16T08:01:09.705Z,1.90
2023-04-16T08:06:12.541Z,1.90
2023-04-16T08:11:17.426Z,2.00
2023-04-16T08:16:20.494Z,1.70
2023-04-16T08:21:24.261Z,1.90
2023-04-16T08:26:27.241Z,1.80
2023-04-16T08:31:30.744Z,2.00
2023-04-16T08:36:33.633Z,1.80
2023-04-16T08:41:41.138Z,2.30
2023-04-16T08:46:46.621Z,1.90
2023-04-16T08:51:56.854Z,1.70
2023-04-16T08:57:01.560Z,3.00
2023-04-16T09:02:06.705Z,3.90
2023-04-16T09:07:11.093Z,3.50
2023-04-16T09:12:14.593Z,3.70
2023-04-16T09:17:19.407Z,2.80
2023-04-16T09:22:22.395Z,3.70
2023-04-16T09:27:28.406Z,4.60
2023-04-16T09:32:31.205Z,3.00
2023-04-16T09:37:34.048Z,3.20
2023-04-16T09:42:37.528Z,2.50
2023-04-16T09:47:45.671Z,3.20
2023-04-16T09:52:53.248Z,2.80
2023-04-16T09:58:01.200Z,3.10
2023-04-16T10:03:06.077Z,3.50
2023-04-16T10:08:17.329Z,2.90
2023-04-16T10:13:20.960Z,2.60
2023-04-16T10:18:23.995Z,3.10
2023-04-16T10:23:27.239Z,2.50
2023-04-16T10:28:30.734Z,2.70
2023-04-16T10:33:37.132Z,2.40
2023-04-16T10:39:00.811Z,3.00
2023-04-16T10:44:12.784Z,3.40
2023-04-16T10:49:21.427Z,2.90
2023-04-16T10:54:27.565Z,2.70
2023-04-16T10:59:33.468Z,2.30
2023-04-16T11:04:44.847Z,2.80
2023-04-16T11:09:51.870Z,3.90
2023-04-16T11:15:06.437Z,4.50
2023-04-16T11:20:22.860Z,3.80
2023-04-16T11:30:37.936Z,4.10
2023-04-16T11:35:41.555Z,3.70
2023-04-16T11:40:44.743Z,3.60
2023-04-16T11:46:07.474Z,3.40
2023-04-16T11:51:16.305Z,3.90
2023-04-16T11:56:30.209Z,5.10
2023-04-16T12:01:34.714Z,4.70
2023-04-16T12:06:37.771Z,3.70
2023-04-16T12:11:41.006Z,4.50
2023-04-16T12:16:43.977Z,4.90
2023-04-16T12:21:48.830Z,6.60
2023-04-16T12:27:03.430Z,6.00
2023-04-16T12:32:21.397Z,5.90
2023-04-16T12:37:24.646Z,5.90
2023-04-16T12:42:27.790Z,5.90
2023-04-16T12:47:32.595Z,5.00
2023-04-16T12:52:35.957Z,5.60
2023-04-16T12:57:38.712Z,6.30
2023-04-16T13:02:41.879Z,7.50
2023-04-16T13:07:44.996Z,6.20
2023-04-16T13:12:47.828Z,6.50
2023-04-16T13:17:50.700Z,6.30
2023-04-16T13:22:54.263Z,5.50
2023-04-16T13:27:57.610Z,6.70
2023-04-16T13:33:00.751Z,6.70
2023-04-16T13:38:04.693Z,5.80
2023-04-16T13:43:07.885Z,5.00
2023-04-16T13:48:11.164Z,5.40
2023-04-16T13:53:14.081Z,6.30
2023-04-16T13:58:16.924Z,6.80
2023-04-16T14:03:19.891Z,4.90
2023-04-16T14:08:22.869Z,6.20
2023-04-16T14:13:25.766Z,5.30
2023-04-16T14:18:28.665Z,5.60
2023-04-16T14:23:33.212Z,6.60
2023-04-16T14:28:36.505Z,5.40
2023-04-16T14:33:39.506Z,5.80
2023-04-16T14:38:43.524Z,5.10
2023-04-16T14:43:46.742Z,4.50
2023-04-16T14:48:49.513Z,4.90
2023-04-16T14:53:52.475Z,5.80
2023-04-16T14:58:55.348Z,5.90
2023-04-16T15:04:00.665Z,8.60
2023-04-16T15:09:05.162Z,5.90
2023-04-16T15:14:08.115Z,5.10
2023-04-16T15:19:11.303Z,5.30
2023-04-16T15:24:14.195Z,5.00
2023-04-16T15:29:17.293Z,4.90
2023-04-16T15:34:20.329Z,5.40
2023-04-16T15:39:23.186Z,5.80
2023-04-16T15:44:26.073Z,5.30
2023-04-16T15:49:30.147Z,5.30
2023-04-16T15:54:33.072Z,5.40
2023-04-16T15:59:36.434Z,5.30
2023-04-16T16:04:43.859Z,7.40
2023-04-16T16:09:49.666Z,6.10
2023-04-16T16:14:52.891Z,4.50
2023-04-16T16:19:57.656Z,6.30
2023-04-16T16:25:00.513Z,4.60
2023-04-16T16:30:06.693Z,5.40
2023-04-16T16:35:11.114Z,6.10
2023-04-16T16:40:14.088Z,5.30
2023-04-16T16:45:17.616Z,5.90
2023-04-16T16:50:21.087Z,6.50
2023-04-16T16:55:24.026Z,6.20
2023-04-16T17:00:27.943Z,6.20
2023-04-16T17:05:31.048Z,7.00
2023-04-16T17:10:35.602Z,8.70
2023-04-16T17:15:38.458Z,9.30
2023-04-16T17:20:41.741Z,10.30
2023-04-16T17:25:44.743Z,8.20
2023-04-16T17:30:51.661Z,7.40
2023-04-16T17:40:59.254Z,7.90
2023-04-16T17:46:02.129Z,7.20
2023-04-16T17:51:11.946Z,8.70
2023-04-16T17:56:14.955Z,9.30
2023-04-16T18:01:20.132Z,8.30
2023-04-16T18:06:23.573Z,8.00
2023-04-16T18:11:28.452Z,8.40
2023-04-16T18:16:32.835Z,8.70
2023-04-16T18:21:35.841Z,8.10
2023-04-16T18:26:41.081Z,8.00
2023-04-16T18:31:45.879Z,6.60
2023-04-16T18:36:49.329Z,6.70
2023-04-16T18:41:54.297Z,6.60
2023-04-16T18:46:57.188Z,7.40
2023-04-16T18:52:00.656Z,7.60
2023-04-16T18:57:03.499Z,9.00
2023-04-16T19:02:09.144Z,8.00
2023-04-16T19:07:13.337Z,7.40
2023-04-16T19:12:16.213Z,7.90
2023-04-16T19:17:19.086Z,8.40
2023-04-16T19:22:22.076Z,7.80
2023-04-16T19:27:29.643Z,8.30
2023-04-16T19:32:32.517Z,8.00
2023-04-16T19:37:35.560Z,8.70
2023-04-16T19:42:38.394Z,8.70
2023-04-16T19:47:41.312Z,8.00
2023-04-16T19:52:44.172Z,8.90
2023-04-16T19:57:48.178Z,9.00
2023-04-16T20:02:51.037Z,8.00
2023-04-16T20:07:54.580Z,8.80
2023-04-16T20:12:57.392Z,9.20
2023-04-16T20:18:00.407Z,8.30
2023-04-16T20:23:03.356Z,8.30
2023-04-16T20:28:06.117Z,9.20
2023-04-16T20:33:09.263Z,9.50
2023-04-16T20:38:12.172Z,9.30
2023-04-16T20:43:18.773Z,8.20
2023-04-16T20:48:21.526Z,9.70
2023-04-16T20:53:24.358Z,9.20
2023-04-16T20:58:27.516Z,11.70
2023-04-16T21:03:30.933Z,9.40
2023-04-16T21:08:34.027Z,9.20
2023-04-16T21:13:36.832Z,8.20
2023-04-16T21:18:39.625Z,8.60
2023-04-16T21:23:42.452Z,9.40
2023-04-16T21:28:45.373Z,8.90
2023-04-16T21:33:48.381Z,8.80
2023-04-16T21:38:51.161Z,9.50
2023-04-16T21:43:54.024Z,9.10
2023-04-16T21:48:56.802Z,7.30
2023-04-16T21:53:59.533Z,9.00
2023-04-16T21:59:02.351Z,9.70
2023-04-16T22:04:07.422Z,8.70
2023-04-16T22:09:10.560Z,9.10
2023-04-16T22:14:14.791Z,8.90
2023-04-16T22:19:21.759Z,8.20
2023-04-16T22:24:24.814Z,8.90
2023-04-16T22:29:27.633Z,8.70
2023-04-16T22:34:30.565Z,9.10
2023-04-16T22:39:33.709Z,7.80
2023-04-16T22:44:37.120Z,7.90
2023-04-16T22:49:39.861Z,9.00
2023-04-16T22:54:42.659Z,8.60
2023-04-16T22:59:45.537Z,9.50
2023-04-16T23:04:48.420Z,8.10
2023-04-16T23:09:51.316Z,8.70
2023-04-16T23:14:54.219Z,8.00
2023-04-16T23:19:57.203Z,7.20
2023-04-16T23:24:59.964Z,8.80
2023-04-16T23:30:03.661Z,6.90
2023-04-16T23:35:07.488Z,6.80
2023-04-16T23:40:11.177Z,7.50
2023-04-16T23:45:14.049Z,7.40
2023-04-16T23:50:16.903Z,7.80
2023-04-16T23:55:19.759Z,6.40
